Aktualne dane pomiarowe

Uwaga, wersja testowa! Automatyczne pobieranie danych za pomocą narzędzi lub skryptów to umożliwiających jest zabronione.

Dane meteo z obszaru Polski uzyskane na podstawie depesz SYNOP pobieranych co godzinę z NWS. Najedź myszką na symbol przedstawiony w tabeli, aby uzyskać informacje co do jego znaczenia. Prosimy pamiętać, że to testowa wersja strony, która jeszcze nie jest ukończona. Stworzono również jest krótki FAQ dotyczący korzystania z tej podstrony Anomalie temperatury w chwili obecnej odniesione są do okresu referencyjnego 1951-2016. Okres ten będzie później zmieniony na 1981-2010. Kliknij ikonę aby pobrać plik CSV. Kliknij ikonę aby wygenerować mapę synoptyczną dla danego terminu.

Wybierz Datę:    

        

Wrocław-Strachowice (12424)

Dane terminowe dla wybranej stacji. Kliknij datę, aby otrzymać dane z tego terminu dla wszystkich stacji.

TemperaturaZachmurzenieWiatrCiśnienieOpadyPogoda
 Data t td wb tx tn tg rh  Nt Nl Cl Cm Ch ws wd g1 g2 wx mslp ppp ch 24h 12h t ww ww w1 w2  
2019-07-07 23:00:00 14.7 6.3 9.9--- 5750.0wxwxwx2wx--21012.9 998.4 1.4---------
2019-07-07 22:00:00 15.5 6.0 10.2--- 5350.0wx-wx1wx--11012.2 997.8 1.3---------
2019-07-07 21:00:00 16.1 6.0 10.5--- 5150.0wx-wx1wx--11011.7 997.3 1.2---------
2019-07-07 20:00:00 16.5 5.7 10.6--- 4950.0wx-wx2wx--21011.4 997.0 1.7---------
2019-07-07 19:00:00 17.3 5.6 10.9--- 4650.0wx-wx2wx---1010.8 996.5 1.4---------
2019-07-07 18:00:00 18.0 4.9 11.0 21.2 13.2- 4250.0wxwxwxwx4wx-1141010.4 996.1 1.2- 0.112------
2019-07-07 17:00:00 19.2 5.3 11.7--- 4040.0wxwxwxwx4wx---1009.5 995.3 0.4---------
2019-07-07 16:00:00 19.5 4.0 11.3--- 3640.0wxwxwxwx5wx---1009.3 995.1 0.0---------
2019-07-07 15:00:00 20.4 5.6 12.4--- 3840.0wxwxwxwx4wx-1141009.0 994.9 -0.2---------
2019-07-07 14:00:00 20.7 5.1 12.3--- 3640.0wxwxwxwx4wx-1141009.0 994.9 -0.2---------
2019-07-07 13:00:00 20.5 5.7 12.4--- 3840.0wxwxwxwx4wx11--1009.2 995.1 0.0---------
2019-07-07 12:00:00 20.0 6.0 12.3--- 4040.0wxwxwxwx5wx101251009.3 995.1 -0.1- 0.16wx-w1--
2019-07-07 11:00:00 20.2 6.5 12.6--- 4140.0wxwxwxwx6wx---1009.2 995.1 0.4---------
2019-07-07 10:00:00 18.5 7.6 12.3--- 4940.0wxwxwxwx6wx111161009.3 995.1 0.2---------
2019-07-07 09:00:00 15.8 8.5 11.4--- 6240.0wxwxwxwx4wx91241009.6 995.2 0.5---wx-w1--
2019-07-07 08:00:00 15.5 8.9 11.5--- 6540.0wxwxwx6wx111161009.1 994.7 0.8---------
2019-07-07 07:00:00 13.8 11.5 12.2--- 8630.0wxwxwx4wx--41009.4 994.9 1.6---wx---
2019-07-07 06:00:00 13.2 11.6 12.1 26.8 13.2 13 906.0wxwxwx2wx-921009.2 994.7 1.6 0.3 0.312wx-w1- 6.9
2019-07-07 05:00:00 14.9 12.6 13.3--- 8630.0wxwxwx3wx-931008.3 993.9 0.8---wx---
2019-07-07 04:00:00 16.7 13.6 14.6--- 8250.0wxwxwx3wx8831007.6 993.3 0.5---------
2019-07-07 03:00:00 16.9 13.8 14.8--- 8240.0wxwxwx3wx--31007.4 993.1 -0.1---------
2019-07-07 02:00:00 16.4 13.3 14.3--- 8250.0wx-wx1wx--11007.4 993.1 0.0---------
2019-07-07 01:00:00 16.3 12.6 13.8--- 7950.0wx-wx1wx---1007.1 992.8 0.1---------
2019-07-07 00:00:00 17.8 13.7 15.1--- 7750.0wx-wx1wx--11007.4 993.2 0.6--6wx-w1--
2019-07-06 23:00:00 18.5 13.1 15.0--- 7150.0wx-wx1wx--11007.3 993.1 1.1---------
2019-07-06 22:00:00 20.3 12.8 15.6--- 6250.0wxwxwxwx2wx--21006.8 992.7 1.0---wx---
2019-07-06 21:00:00 21.2 12.1 15.6--- 5650.0wx-wx1wx--11006.7 992.6 1.2---wx-w1--
2019-07-06 20:00:00 21.9 12.2 15.9--- 5450.0wxwxwxwx2wx--21006.0 992.0 0.6---wx---
2019-07-06 19:00:00 23.7 11.4 16.3--- 4640.0wxwxwxwxwx3wx--31005.6 991.7 0.3---wx---
2019-07-06 18:00:00 26.8 7.3 15.8 30.0 18.6- 2950.0wx-wx3wx-1231005.2 991.4 -0.1- 0.012------
2019-07-06 17:00:00 27.8 7.1 16.1--- 2750.0wx-wx5wx101151005.1 991.4 -0.9---------
2019-07-06 16:00:00 28.6 8.3 16.9--- 2850.0wx-wx6wx-1161005.1 991.4 -1.2---------
2019-07-06 15:00:00 29.4 8.4 17.2--- 2750.0wxwxwxwx6wx121261005.2 991.5 -1.9---------
2019-07-06 14:00:00 28.5 8.7 17.0--- 2950.0wxwxwxwx5wx--51006.0 992.3 -1.7---------
2019-07-06 13:00:00 28.2 9.0 17.0--- 3050.0wxwxwxwx4wx91141006.3 992.6 -2.3---------
2019-07-06 12:00:00 26.6 9.9 16.8--- 3550.0wxwxwxwx3wx-931007.2 993.4 -2.4- 0.06------
2019-07-06 11:00:00 26.7 10.4 17.1--- 3650.0wxwxwxwx3wx--31007.8 994.0 -2.4---------
2019-07-06 10:00:00 25.0 10.5 16.4--- 4050.0wxwxwxwx4wx--41008.8 994.9 -2.2---------
2019-07-06 09:00:00 24.5 11.1 16.5--- 4350.0wxwxwxwxwx4wx-941009.7 995.8 -1.7---------
2019-07-06 08:00:00 22.4 11.5 15.8--- 5050.0wx-wxwx2wx--21010.5 996.4 -1.2---------
2019-07-06 07:00:00 20.4 11.1 14.7--- 5550.0wx-wxwx2wx--21011.3 997.1 -0.8---------
2019-07-06 06:00:00 18.6 11.9 14.4 20.8 15.7 14 6550.0wxwxwxwx3wx--31011.8 997.5 -0.7--12----- 0.5
2019-07-06 05:00:00 17.9 11.5 13.9--- 6650.0wxwxwxwx2wx--21011.9 997.6 -0.6---------
2019-07-06 04:00:00 16.4 11.3 13.1--- 7250.0wxwxwxwxwx2wx--21012.3 997.9 -0.9---------
2019-07-06 03:00:00 16.2 11.1 12.9--- 7250.0wx-wx2wx--21012.6 998.2 -0.6---------
2019-07-06 02:00:00 15.7 11.3 12.8--- 7550.0wxwxwxwxwx1wx--11012.6 998.2 -0.9---------
2019-07-06 01:00:00 16.6 11.3 13.2--- 7150.0wx-wx2wx--21013.2 998.8 -0.3---------
2019-07-06 00:00:00 17.0 11.0 13.2--- 6850.0wx-wx1wx--11013.2 998.8 -0.2--6wx-w1--
2.0 ms

 

Print Friendly, PDF & Email